sensor_id;sensor_type;location;lat;lon;timestamp;pressure;altitude;pressure_sealevel;temperature;humidity
41830;BME280;38614;43.472;23.936;2022-12-01T00:01:17;101097.50;;;2.05;100.00
41830;BME280;38614;43.472;23.936;2022-12-01T00:04:05;101100.41;;;2.14;100.00
41830;BME280;38614;43.472;23.936;2022-12-01T00:06:52;101098.31;;;2.06;100.00
41830;BME280;38614;43.472;23.936;2022-12-01T00:09:40;101105.09;;;2.03;100.00
41830;BME280;38614;43.472;23.936;2022-12-01T00:12:46;101108.94;;;2.02;100.00
41830;BME280;38614;43.472;23.936;2022-12-01T00:15:34;101113.00;;;2.05;100.00
41830;BME280;38614;43.472;23.936;2022-12-01T00:18:22;101109.22;;;2.00;100.00
41830;BME280;38614;43.472;23.936;2022-12-01T00:21:13;101109.75;;;2.03;100.00
41830;BME280;38614;43.472;23.936;2022-12-01T00:24:01;101114.66;;;2.00;100.00
41830;BME280;38614;43.472;23.936;2022-12-01T00:26:49;101108.41;;;2.00;100.00
41830;BME280;38614;43.472;23.936;2022-12-01T00:29:36;101107.03;;;2.03;100.00
41830;BME280;38614;43.472;23.936;2022-12-01T00:32:24;101102.94;;;2.00;100.00
41830;BME280;38614;43.472;23.936;2022-12-01T00:35:12;101097.50;;;1.95;100.00
41830;BME280;38614;43.472;23.936;2022-12-01T00:37:59;101102.13;;;1.94;100.00
41830;BME280;38614;43.472;23.936;2022-12-01T00:40:47;101100.50;;;1.98;100.00
41830;BME280;38614;43.472;23.936;2022-12-01T00:43:34;101096.69;;;1.94;100.00
41830;BME280;38614;43.472;23.936;2022-12-01T00:46:22;101099.97;;;1.96;100.00
41830;BME280;38614;43.472;23.936;2022-12-01T00:49:13;101102.13;;;1.94;100.00
41830;BME280;38614;43.472;23.936;2022-12-01T00:52:01;101097.28;;;1.81;100.00
41830;BME280;38614;43.472;23.936;2022-12-01T00:54:49;101096.19;;;1.82;100.00
41830;BME280;38614;43.472;23.936;2022-12-01T00:57:36;101095.09;;;1.83;100.00
41830;BME280;38614;43.472;23.936;2022-12-01T01:00:24;101094.03;;;1.79;100.00
41830;BME280;38614;43.472;23.936;2022-12-01T01:03:12;101094.84;;;1.80;100.00
41830;BME280;38614;43.472;23.936;2022-12-01T01:06:06;101092.38;;;1.83;100.00
41830;BME280;38614;43.472;23.936;2022-12-01T01:08:54;101101.94;;;1.81;100.00
41830;BME280;38614;43.472;23.936;2022-12-01T01:11:42;101098.91;;;1.82;100.00
41830;BME280;38614;43.472;23.936;2022-12-01T01:14:29;101099.16;;;1.86;100.00
41830;BME280;38614;43.472;23.936;2022-12-01T01:17:17;101088.88;;;1.78;100.00
41830;BME280;38614;43.472;23.936;2022-12-01T01:20:05;101087.78;;;1.79;100.00
41830;BME280;38614;43.472;23.936;2022-12-01T01:22:53;101083.13;;;1.79;100.00
41830;BME280;38614;43.472;23.936;2022-12-01T01:25:40;101077.97;;;1.78;100.00
41830;BME280;38614;43.472;23.936;2022-12-01T01:28:28;101079.31;;;1.75;100.00
41830;BME280;38614;43.472;23.936;2022-12-01T01:31:17;101074.69;;;1.76;100.00
41830;BME280;38614;43.472;23.936;2022-12-01T01:34:05;101078.78;;;1.73;100.00
41830;BME280;38614;43.472;23.936;2022-12-01T01:36:53;101081.78;;;1.71;100.00
41830;BME280;38614;43.472;23.936;2022-12-01T01:39:40;101074.44;;;1.77;100.00
41830;BME280;38614;43.472;23.936;2022-12-01T01:42:28;101070.84;;;1.77;100.00
41830;BME280;38614;43.472;23.936;2022-12-01T01:45:19;101071.69;;;1.72;100.00
41830;BME280;38614;43.472;23.936;2022-12-01T01:48:07;101064.09;;;1.64;100.00
41830;BME280;38614;43.472;23.936;2022-12-01T01:50:56;101057.84;;;1.63;100.00
41830;BME280;38614;43.472;23.936;2022-12-01T01:53:43;101066.84;;;1.59;100.00
41830;BME280;38614;43.472;23.936;2022-12-01T01:56:31;101065.50;;;1.51;100.00
41830;BME280;38614;43.472;23.936;2022-12-01T01:59:21;101066.84;;;1.49;100.00
41830;BME280;38614;43.472;23.936;2022-12-01T02:02:10;101067.41;;;1.51;100.00
41830;BME280;38614;43.472;23.936;2022-12-01T02:04:59;101067.41;;;1.51;100.00
41830;BME280;38614;43.472;23.936;2022-12-01T02:07:48;101058.13;;;1.47;100.00
41830;BME280;38614;43.472;23.936;2022-12-01T02:13:37;101063.06;;;1.50;100.00
41830;BME280;38614;43.472;23.936;2022-12-01T02:26:07;101046.16;;;1.53;100.00
41830;BME280;38614;43.472;23.936;2022-12-01T02:31:38;101053.22;;;1.49;100.00
41830;BME280;38614;43.472;23.936;2022-12-01T02:43:09;101048.31;;;1.56;100.00
41830;BME280;38614;43.472;23.936;2022-12-01T02:48:48;101046.16;;;1.53;100.00
41830;BME280;38614;43.472;23.936;2022-12-01T02:51:37;101051.03;;;1.56;100.00
41830;BME280;38614;43.472;23.936;2022-12-01T02:54:26;101046.44;;;1.46;100.00
41830;BME280;38614;43.472;23.936;2022-12-01T02:57:16;101050.50;;;1.49;100.00
41830;BME280;38614;43.472;23.936;2022-12-01T03:00:03;101047.53;;;1.50;100.00
41830;BME280;38614;43.472;23.936;2022-12-01T03:05:49;101056.25;;;1.42;100.00
41830;BME280;38614;43.472;23.936;2022-12-01T03:11:41;101054.88;;;1.45;100.00
41830;BME280;38614;43.472;23.936;2022-12-01T03:14:33;101057.34;;;1.41;100.00
41830;BME280;38614;43.472;23.936;2022-12-01T03:17:25;101048.38;;;1.35;100.00
41830;BME280;38614;43.472;23.936;2022-12-01T03:20:17;101048.94;;;1.32;100.00
41830;BME280;38614;43.472;23.936;2022-12-01T03:23:12;101054.66;;;1.31;100.00
41830;BME280;38614;43.472;23.936;2022-12-01T03:26:02;101059.53;;;1.29;100.00
41830;BME280;38614;43.472;23.936;2022-12-01T03:28:54;101062.00;;;1.25;100.00
41830;BME280;38614;43.472;23.936;2022-12-01T03:31:44;101062.81;;;1.21;100.00
41830;BME280;38614;43.472;23.936;2022-12-01T03:37:32;101061.75;;;1.22;100.00
41830;BME280;38614;43.472;23.936;2022-12-01T03:40:22;101050.56;;;1.28;100.00
41830;BME280;38614;43.472;23.936;2022-12-01T03:43:17;101056.56;;;1.25;100.00
41830;BME280;38614;43.472;23.936;2022-12-01T03:46:08;101062.56;;;1.17;100.00
41830;BME280;38614;43.472;23.936;2022-12-01T03:48:57;101059.28;;;1.15;100.00
41830;BME280;38614;43.472;23.936;2022-12-01T03:51:49;101053.03;;;1.09;100.00
41830;BME280;38614;43.472;23.936;2022-12-01T03:57:35;101057.13;;;1.07;100.00
41830;BME280;38614;43.472;23.936;2022-12-01T04:00:24;101055.22;;;1.07;100.00
41830;BME280;38614;43.472;23.936;2022-12-01T04:03:19;101055.47;;;1.01;100.00
41830;BME280;38614;43.472;23.936;2022-12-01T04:06:09;101053.84;;;1.00;100.00
41830;BME280;38614;43.472;23.936;2022-12-01T04:08:56;101059.31;;;1.05;100.00
41830;BME280;38614;43.472;23.936;2022-12-01T04:11:44;101052.22;;;0.99;100.00
41830;BME280;38614;43.472;23.936;2022-12-01T04:14:50;101052.75;;;1.11;100.00
41830;BME280;38614;43.472;23.936;2022-12-01T04:17:38;101059.28;;;1.00;100.00
41830;BME280;38614;43.472;23.936;2022-12-01T04:20:25;101065.00;;;1.08;100.00
41830;BME280;38614;43.472;23.936;2022-12-01T04:23:13;101069.09;;;1.11;100.00
41830;BME280;38614;43.472;23.936;2022-12-01T04:26:20;101064.19;;;1.08;100.00
41830;BME280;38614;43.472;23.936;2022-12-01T04:29:09;101063.38;;;1.02;100.00
41830;BME280;38614;43.472;23.936;2022-12-01T04:31:57;101068.56;;;1.04;100.00
41830;BME280;38614;43.472;23.936;2022-12-01T04:34:44;101068.81;;;0.92;100.00
41830;BME280;38614;43.472;23.936;2022-12-01T04:37:32;101063.13;;;0.99;100.00
41830;BME280;38614;43.472;23.936;2022-12-01T04:40:19;101077.25;;;0.91;100.00
41830;BME280;38614;43.472;23.936;2022-12-01T04:43:07;101067.75;;;0.98;100.00
41830;BME280;38614;43.472;23.936;2022-12-01T04:45:55;101065.28;;;0.97;100.00
41830;BME280;38614;43.472;23.936;2022-12-01T04:48:43;101065.56;;;0.90;100.00
41830;BME280;38614;43.472;23.936;2022-12-01T04:51:30;101062.84;;;0.90;100.00
41830;BME280;38614;43.472;23.936;2022-12-01T04:54:18;101054.69;;;0.95;100.00
41830;BME280;38614;43.472;23.936;2022-12-01T04:57:05;101059.28;;;1.00;100.00
41830;BME280;38614;43.472;23.936;2022-12-01T04:59:53;101060.13;;;0.95;100.00
41830;BME280;38614;43.472;23.936;2022-12-01T05:02:40;101055.50;;;0.91;100.00
41830;BME280;38614;43.472;23.936;2022-12-01T05:05:29;101054.97;;;0.94;100.00
41830;BME280;38614;43.472;23.936;2022-12-01T05:08:17;101055.50;;;0.91;100.00
41830;BME280;38614;43.472;23.936;2022-12-01T05:11:04;101071.28;;;0.94;100.00
41830;BME280;38614;43.472;23.936;2022-12-01T05:13:54;101067.75;;;0.88;100.00
41830;BME280;38614;43.472;23.936;2022-12-01T05:16:41;101057.94;;;0.87;100.00
41830;BME280;38614;43.472;23.936;2022-12-01T05:19:29;101066.38;;;0.80;100.00
41830;BME280;38614;43.472;23.936;2022-12-01T05:22:35;101059.31;;;0.79;100.00
41830;BME280;38614;43.472;23.936;2022-12-01T05:25:43;101054.94;;;0.73;100.00
41830;BME280;38614;43.472;23.936;2022-12-01T05:28:31;101054.94;;;0.73;100.00
41830;BME280;38614;43.472;23.936;2022-12-01T05:31:19;101059.84;;;0.76;100.00
41830;BME280;38614;43.472;23.936;2022-12-01T05:34:07;101056.31;;;0.81;100.00
41830;BME280;38614;43.472;23.936;2022-12-01T05:36:55;101051.69;;;0.76;100.00
41830;BME280;38614;43.472;23.936;2022-12-01T05:39:42;101052.78;;;0.75;100.00
41830;BME280;38614;43.472;23.936;2022-12-01T05:42:30;101047.34;;;0.75;100.00
41830;BME280;38614;43.472;23.936;2022-12-01T05:45:17;101056.59;;;0.69;100.00
41830;BME280;38614;43.472;23.936;2022-12-01T05:48:05;101049.22;;;0.60;100.00
41830;BME280;38614;43.472;23.936;2022-12-01T05:50:52;101054.41;;;0.61;100.00
41830;BME280;38614;43.472;23.936;2022-12-01T05:53:40;101054.94;;;0.58;100.00
41830;BME280;38614;43.472;23.936;2022-12-01T05:56:27;101054.91;;;0.53;100.00
41830;BME280;38614;43.472;23.936;2022-12-01T05:59:15;101057.66;;;0.63;100.00
41830;BME280;38614;43.472;23.936;2022-12-01T06:02:02;101051.13;;;0.69;100.00
41830;BME280;38614;43.472;23.936;2022-12-01T06:04:50;101061.19;;;0.74;100.00
41830;BME280;38614;43.472;23.936;2022-12-01T06:07:37;101055.50;;;0.75;100.00
41830;BME280;38614;43.472;23.936;2022-12-01T06:10:26;101059.56;;;0.73;100.00
41830;BME280;38614;43.472;23.936;2022-12-01T06:13:14;101057.94;;;0.77;100.00
41830;BME280;38614;43.472;23.936;2022-12-01T06:16:02;101050.88;;;0.81;100.00
41830;BME280;38614;43.472;23.936;2022-12-01T06:18:50;101057.94;;;0.87;100.00
41830;BME280;38614;43.472;23.936;2022-12-01T06:21:38;101056.59;;;0.84;100.00
41830;BME280;38614;43.472;23.936;2022-12-01T06:24:25;101053.03;;;0.89;100.00
41830;BME280;38614;43.472;23.936;2022-12-01T06:27:13;101057.66;;;0.89;100.00
41830;BME280;38614;43.472;23.936;2022-12-01T06:30:00;101068.28;;;0.90;100.00
41830;BME280;38614;43.472;23.936;2022-12-01T06:32:48;101060.66;;;0.92;100.00
41830;BME280;38614;43.472;23.936;2022-12-01T06:35:36;101064.75;;;0.90;100.00
41830;BME280;38614;43.472;23.936;2022-12-01T06:38:23;101065.28;;;0.97;100.00
41830;BME280;38614;43.472;23.936;2022-12-01T06:41:11;101062.03;;;0.95;100.00
41830;BME280;38614;43.472;23.936;2022-12-01T06:43:59;101062.84;;;1.05;100.00
41830;BME280;38614;43.472;23.936;2022-12-01T06:46:47;101054.38;;;1.02;100.00
41830;BME280;38614;43.472;23.936;2022-12-01T06:49:39;101058.22;;;0.96;100.00
41830;BME280;38614;43.472;23.936;2022-12-01T06:52:26;101058.22;;;1.01;100.00
41830;BME280;38614;43.472;23.936;2022-12-01T06:55:13;101067.44;;;1.10;100.00
41830;BME280;38614;43.472;23.936;2022-12-01T06:58:01;101058.75;;;1.08;100.00
41830;BME280;38614;43.472;23.936;2022-12-01T07:00:49;101061.47;;;0.98;100.00
41830;BME280;38614;43.472;23.936;2022-12-01T07:03:38;101058.22;;;1.06;100.00
41830;BME280;38614;43.472;23.936;2022-12-01T07:06:27;101063.13;;;0.99;100.00
41830;BME280;38614;43.472;23.936;2022-12-01T07:09:15;101066.66;;;0.94;100.00
41830;BME280;38614;43.472;23.936;2022-12-01T07:12:02;101060.94;;;0.96;100.00
41830;BME280;38614;43.472;23.936;2022-12-01T07:14:50;101062.56;;;0.97;100.00
41830;BME280;38614;43.472;23.936;2022-12-01T07:17:38;101057.94;;;1.12;100.00
41830;BME280;38614;43.472;23.936;2022-12-01T07:20:25;101069.09;;;1.06;100.00
41830;BME280;38614;43.472;23.936;2022-12-01T07:23:13;101075.38;;;0.96;100.00
41830;BME280;38614;43.472;23.936;2022-12-01T07:26:06;101073.44;;;1.02;100.00
41830;BME280;38614;43.472;23.936;2022-12-01T07:28:55;101075.63;;;1.05;100.00
41830;BME280;38614;43.472;23.936;2022-12-01T07:31:42;101084.88;;;0.99;100.00
41830;BME280;38614;43.472;23.936;2022-12-01T07:34:30;101089.78;;;1.02;100.00
41830;BME280;38614;43.472;23.936;2022-12-01T07:37:17;101079.16;;;1.10;100.00
41830;BME280;38614;43.472;23.936;2022-12-01T07:40:05;101078.91;;;1.07;100.00
41830;BME280;38614;43.472;23.936;2022-12-01T07:42:53;101073.72;;;1.16;100.00
41830;BME280;38614;43.472;23.936;2022-12-01T07:45:41;101082.44;;;1.18;100.00
41830;BME280;38614;43.472;23.936;2022-12-01T07:48:28;101089.81;;;1.12;100.00
41830;BME280;38614;43.472;23.936;2022-12-01T07:51:16;101080.53;;;1.03;100.00
41830;BME280;38614;43.472;23.936;2022-12-01T07:54:04;101081.63;;;1.07;100.00
41830;BME280;38614;43.472;23.936;2022-12-01T07:56:52;101088.41;;;1.09;100.00
41830;BME280;38614;43.472;23.936;2022-12-01T07:59:40;101078.06;;;1.01;100.00
41830;BME280;38614;43.472;23.936;2022-12-01T08:02:28;101087.59;;;1.09;100.00
41830;BME280;38614;43.472;23.936;2022-12-01T08:05:15;101090.03;;;1.10;100.00
41830;BME280;38614;43.472;23.936;2022-12-01T08:08:03;101084.59;;;1.10;100.00
41830;BME280;38614;43.472;23.936;2022-12-01T08:10:51;101078.91;;;1.07;100.00
41830;BME280;38614;43.472;23.936;2022-12-01T08:13:39;101082.97;;;1.14;100.00
41830;BME280;38614;43.472;23.936;2022-12-01T08:16:27;101087.91;;;1.12;100.00
41830;BME280;38614;43.472;23.936;2022-12-01T08:19:14;101095.78;;;1.04;100.00
41830;BME280;38614;43.472;23.936;2022-12-01T08:22:02;101092.78;;;1.00;100.00
41830;BME280;38614;43.472;23.936;2022-12-01T08:24:49;101095.78;;;0.99;100.00
41830;BME280;38614;43.472;23.936;2022-12-01T08:27:37;101089.78;;;1.07;100.00
41830;BME280;38614;43.472;23.936;2022-12-01T08:30:25;101095.75;;;1.09;100.00
41830;BME280;38614;43.472;23.936;2022-12-01T08:33:12;101091.69;;;1.06;100.00
41830;BME280;38614;43.472;23.936;2022-12-01T08:36:01;101087.91;;;1.12;100.00
41830;BME280;38614;43.472;23.936;2022-12-01T08:38:49;101084.06;;;1.19;100.00
41830;BME280;38614;43.472;23.936;2022-12-01T08:41:37;101093.06;;;1.14;100.00
41830;BME280;38614;43.472;23.936;2022-12-01T08:44:25;101091.16;;;1.14;100.00
41830;BME280;38614;43.472;23.936;2022-12-01T08:47:12;101088.97;;;1.22;100.00
41830;BME280;38614;43.472;23.936;2022-12-01T08:50:05;101090.84;;;1.26;100.00
41830;BME280;38614;43.472;23.936;2022-12-01T08:52:52;101092.50;;;1.22;100.00
41830;BME280;38614;43.472;23.936;2022-12-01T08:55:40;101091.13;;;1.30;100.00
41830;BME280;38614;43.472;23.936;2022-12-01T08:58:27;101096.31;;;1.26;100.00
41830;BME280;38614;43.472;23.936;2022-12-01T09:01:15;101095.75;;;1.29;100.00
41830;BME280;38614;43.472;23.936;2022-12-01T09:04:03;101085.16;;;1.33;100.00
41830;BME280;38614;43.472;23.936;2022-12-01T09:06:57;101080.22;;;1.35;100.00
41830;BME280;38614;43.472;23.936;2022-12-01T09:09:44;101077.25;;;1.31;100.00
41830;BME280;38614;43.472;23.936;2022-12-01T09:12:32;101074.78;;;1.40;100.00
41830;BME280;38614;43.472;23.936;2022-12-01T09:15:20;101067.97;;;1.27;100.00
41830;BME280;38614;43.472;23.936;2022-12-01T09:18:07;101069.88;;;1.27;100.00
41830;BME280;38614;43.472;23.936;2022-12-01T09:20:55;101071.00;;;1.31;100.00
41830;BME280;38614;43.472;23.936;2022-12-01T09:23:43;101075.88;;;1.34;100.00
41830;BME280;38614;43.472;23.936;2022-12-01T09:26:31;101068.81;;;1.33;100.00
41830;BME280;38614;43.472;23.936;2022-12-01T09:29:19;101068.25;;;1.36;100.00
41830;BME280;38614;43.472;23.936;2022-12-01T09:32:06;101074.25;;;1.33;100.00
41830;BME280;38614;43.472;23.936;2022-12-01T09:34:54;101070.41;;;1.39;100.00
41830;BME280;38614;43.472;23.936;2022-12-01T09:37:41;101069.88;;;1.37;100.00
41830;BME280;38614;43.472;23.936;2022-12-01T09:40:38;101070.69;;;1.37;100.00
41830;BME280;38614;43.472;23.936;2022-12-01T09:43:28;101064.72;;;1.35;100.00
41830;BME280;38614;43.472;23.936;2022-12-01T09:46:21;101065.28;;;1.32;100.00
41830;BME280;38614;43.472;23.936;2022-12-01T09:49:14;101062.25;;;1.29;100.00
41830;BME280;38614;43.472;23.936;2022-12-01T09:52:03;101073.13;;;1.39;100.00
41830;BME280;38614;43.472;23.936;2022-12-01T09:54:51;101067.69;;;1.44;100.00
41830;BME280;38614;43.472;23.936;2022-12-01T09:57:40;101058.16;;;1.41;100.00
41830;BME280;38614;43.472;23.936;2022-12-01T10:00:30;101062.53;;;1.37;100.00
41830;BME280;38614;43.472;23.936;2022-12-01T10:06:13;101055.69;;;1.45;100.00
41830;BME280;38614;43.472;23.936;2022-12-01T10:12:25;101045.63;;;1.46;100.00
41830;BME280;38614;43.472;23.936;2022-12-01T10:30:13;101032.75;;;1.66;100.00
41830;BME280;38614;43.472;23.936;2022-12-01T10:33:05;101033.56;;;1.67;100.00
41830;BME280;38614;43.472;23.936;2022-12-01T10:35:57;101037.09;;;1.67;100.00
41830;BME280;38614;43.472;23.936;2022-12-01T10:38:45;101036.00;;;1.74;100.00
41830;BME280;38614;43.472;23.936;2022-12-01T10:41:33;101026.19;;;1.73;100.00
41830;BME280;38614;43.472;23.936;2022-12-01T10:44:22;101029.16;;;1.81;100.00
41830;BME280;38614;43.472;23.936;2022-12-01T10:50:27;101022.94;;;1.65;100.00
41830;BME280;38614;43.472;23.936;2022-12-01T10:56:09;101007.97;;;1.68;100.00
41830;BME280;38614;43.472;23.936;2022-12-01T10:59:01;101016.16;;;1.68;100.00
41830;BME280;38614;43.472;23.936;2022-12-01T11:01:49;101013.41;;;1.68;100.00
41830;BME280;38614;43.472;23.936;2022-12-01T11:04:41;101001.16;;;1.65;100.00
41830;BME280;38614;43.472;23.936;2022-12-01T11:07:33;101012.31;;;1.64;100.00
41830;BME280;38614;43.472;23.936;2022-12-01T11:10:34;101010.13;;;1.71;100.00
41830;BME280;38614;43.472;23.936;2022-12-01T11:13:23;101008.50;;;1.70;100.00
41830;BME280;38614;43.472;23.936;2022-12-01T11:16:36;101009.06;;;1.57;100.00
41830;BME280;38614;43.472;23.936;2022-12-01T11:19:29;101007.75;;;1.49;100.00
41830;BME280;38614;43.472;23.936;2022-12-01T11:22:20;101010.22;;;1.51;100.00
41830;BME280;38614;43.472;23.936;2022-12-01T11:25:12;101005.31;;;1.42;100.00
41830;BME280;38614;43.472;23.936;2022-12-01T11:28:04;101008.84;;;1.48;100.00
41830;BME280;38614;43.472;23.936;2022-12-01T11:30:56;101007.75;;;1.49;100.00
41830;BME280;38614;43.472;23.936;2022-12-01T11:36:42;101017.81;;;1.49;100.00
41830;BME280;38614;43.472;23.936;2022-12-01T11:39:32;101014.03;;;1.45;100.00
41830;BME280;38614;43.472;23.936;2022-12-01T11:42:27;101014.59;;;1.41;100.00
41830;BME280;38614;43.472;23.936;2022-12-01T11:54:05;101019.53;;;1.24;100.00
41830;BME280;38614;43.472;23.936;2022-12-01T11:56:53;101015.19;;;1.23;100.00
41830;BME280;38614;43.472;23.936;2022-12-01T12:00:01;101014.06;;;1.29;100.00
41830;BME280;38614;43.472;23.936;2022-12-01T12:03:09;101018.72;;;1.24;100.00
41830;BME280;38614;43.472;23.936;2022-12-01T12:18:29;101010.28;;;1.10;100.00
41830;BME280;38614;43.472;23.936;2022-12-01T12:47:49;101011.91;;;1.11;100.00
41830;BME280;38614;43.472;23.936;2022-12-01T12:50:43;101011.38;;;1.09;100.00
41830;BME280;38614;43.472;23.936;2022-12-01T12:53:39;101010.56;;;1.13;100.00
41830;BME280;38614;43.472;23.936;2022-12-01T12:56:30;101005.13;;;1.13;100.00
41830;BME280;38614;43.472;23.936;2022-12-01T12:59:30;101007.03;;;1.08;100.00
41830;BME280;38614;43.472;23.936;2022-12-01T13:09:01;101004.59;;;1.01;100.00
41830;BME280;38614;43.472;23.936;2022-12-01T13:11:32;101002.97;;;1.05;100.00
41830;BME280;38614;43.472;23.936;2022-12-01T13:17:19;101015.75;;;1.00;100.00
41830;BME280;38614;43.472;23.936;2022-12-01T13:20:12;101012.47;;;0.93;100.00
41830;BME280;38614;43.472;23.936;2022-12-01T13:23:00;101003.25;;;1.04;100.00
41830;BME280;38614;43.472;23.936;2022-12-01T13:25:50;101000.78;;;1.07;100.00
41830;BME280;38614;43.472;23.936;2022-12-01T13:28:43;101006.22;;;1.12;100.00
41830;BME280;38614;43.472;23.936;2022-12-01T13:31:45;101009.19;;;1.21;100.00
41830;BME280;38614;43.472;23.936;2022-12-01T13:37:29;101007.81;;;1.19;100.00
41830;BME280;38614;43.472;23.936;2022-12-01T13:43:18;101001.84;;;1.01;100.00
41830;BME280;38614;43.472;23.936;2022-12-01T13:46:17;101003.78;;;0.96;100.00
41830;BME280;38614;43.472;23.936;2022-12-01T14:00:44;100987.72;;;0.99;100.00
41830;BME280;38614;43.472;23.936;2022-12-01T14:03:36;100986.63;;;1.00;100.00
41830;BME280;38614;43.472;23.936;2022-12-01T14:09:13;100982.56;;;0.93;100.00
41830;BME280;38614;43.472;23.936;2022-12-01T14:15:03;100989.09;;;0.87;100.00
41830;BME280;38614;43.472;23.936;2022-12-01T14:18:02;100991.81;;;0.97;100.00
41830;BME280;38614;43.472;23.936;2022-12-01T14:20:50;100997.50;;;1.00;100.00
41830;BME280;38614;43.472;23.936;2022-12-01T14:26:44;100989.63;;;1.04;100.00
41830;BME280;38614;43.472;23.936;2022-12-01T14:29:36;100985.28;;;0.98;100.00
41830;BME280;38614;43.472;23.936;2022-12-01T14:32:29;100989.63;;;0.99;100.00
41830;BME280;38614;43.472;23.936;2022-12-01T14:35:16;100986.91;;;0.89;100.00
41830;BME280;38614;43.472;23.936;2022-12-01T14:38:04;100991.81;;;0.92;100.00
41830;BME280;38614;43.472;23.936;2022-12-01T14:40:53;100987.47;;;0.96;100.00
41830;BME280;38614;43.472;23.936;2022-12-01T14:43:41;100985.84;;;0.95;100.00
41830;BME280;38614;43.472;23.936;2022-12-01T14:50:00;101000.53;;;0.94;100.00
41830;BME280;38614;43.472;23.936;2022-12-01T14:52:54;100994.81;;;0.90;100.00
41830;BME280;38614;43.472;23.936;2022-12-01T14:55:53;100994.81;;;0.90;100.00
41830;BME280;38614;43.472;23.936;2022-12-01T14:58:53;100992.91;;;0.96;100.00
41830;BME280;38614;43.472;23.936;2022-12-01T15:01:43;100974.69;;;0.76;100.00
41830;BME280;38614;43.472;23.936;2022-12-01T15:04:31;100999.16;;;0.91;100.00
41830;BME280;38614;43.472;23.936;2022-12-01T15:07:19;100999.72;;;0.93;100.00
41830;BME280;38614;43.472;23.936;2022-12-01T15:10:18;101001.06;;;0.96;100.00
41830;BME280;38614;43.472;23.936;2022-12-01T15:13:42;100999.44;;;0.95;100.00
41830;BME280;38614;43.472;23.936;2022-12-01T15:16:23;101000.81;;;0.87;100.00
41830;BME280;38614;43.472;23.936;2022-12-01T15:22:30;101004.34;;;0.82;100.00
41830;BME280;38614;43.472;23.936;2022-12-01T15:25:19;101007.88;;;0.83;100.00
41830;BME280;38614;43.472;23.936;2022-12-01T15:28:13;101004.06;;;0.79;100.00
41830;BME280;38614;43.472;23.936;2022-12-01T15:31:04;101006.53;;;0.85;100.00
41830;BME280;38614;43.472;23.936;2022-12-01T15:33:56;101002.97;;;0.80;100.00
41830;BME280;38614;43.472;23.936;2022-12-01T15:36:44;101004.91;;;0.84;100.00
41830;BME280;38614;43.472;23.936;2022-12-01T15:39:35;101005.16;;;0.78;100.00
41830;BME280;38614;43.472;23.936;2022-12-01T15:42:24;101016.84;;;0.89;100.00
41830;BME280;38614;43.472;23.936;2022-12-01T15:48:02;101011.16;;;0.80;100.00
41830;BME280;38614;43.472;23.936;2022-12-01T15:51:19;101013.59;;;0.71;100.00
41830;BME280;38614;43.472;23.936;2022-12-01T15:54:20;101011.69;;;0.77;100.00
41830;BME280;38614;43.472;23.936;2022-12-01T15:57:11;101016.84;;;0.83;100.00
41830;BME280;38614;43.472;23.936;2022-12-01T16:00:03;101017.94;;;0.77;100.00
41830;BME280;38614;43.472;23.936;2022-12-01T16:02:58;101017.41;;;0.75;100.00
41830;BME280;38614;43.472;23.936;2022-12-01T16:05:48;101017.41;;;0.75;100.00
41830;BME280;38614;43.472;23.936;2022-12-01T16:08:36;101015.75;;;0.74;100.00
41830;BME280;38614;43.472;23.936;2022-12-01T16:11:23;101019.03;;;0.76;100.00
41830;BME280;38614;43.472;23.936;2022-12-01T16:14:23;101022.84;;;0.80;100.00
41830;BME280;38614;43.472;23.936;2022-12-01T16:17:11;101021.19;;;0.74;100.00
41830;BME280;38614;43.472;23.936;2022-12-01T16:23:08;101019.03;;;0.81;100.00
41830;BME280;38614;43.472;23.936;2022-12-01T16:25:56;101020.94;;;0.76;100.00
41830;BME280;38614;43.472;23.936;2022-12-01T16:28:48;101017.94;;;0.72;100.00
41830;BME280;38614;43.472;23.936;2022-12-01T16:31:35;101025.28;;;0.72;100.00
41830;BME280;38614;43.472;23.936;2022-12-01T16:34:46;101016.59;;;0.70;100.00
41830;BME280;38614;43.472;23.936;2022-12-01T16:37:34;101015.78;;;0.69;100.00
41830;BME280;38614;43.472;23.936;2022-12-01T16:40:22;101025.03;;;0.78;100.00
41830;BME280;38614;43.472;23.936;2022-12-01T16:43:14;101022.56;;;0.82;100.00
41830;BME280;38614;43.472;23.936;2022-12-01T16:46:02;101026.09;;;0.82;100.00
41830;BME280;38614;43.472;23.936;2022-12-01T16:48:50;101028.56;;;0.79;100.00
41830;BME280;38614;43.472;23.936;2022-12-01T16:51:42;101024.19;;;0.83;100.00
41830;BME280;38614;43.472;23.936;2022-12-01T16:54:42;101019.31;;;0.85;100.00
41830;BME280;38614;43.472;23.936;2022-12-01T16:57:29;101020.13;;;0.85;100.00
41830;BME280;38614;43.472;23.936;2022-12-01T17:00:17;101024.22;;;0.78;100.00
41830;BME280;38614;43.472;23.936;2022-12-01T17:03:07;101024.75;;;0.85;100.00
41830;BME280;38614;43.472;23.936;2022-12-01T17:05:59;101024.75;;;0.80;100.00
41830;BME280;38614;43.472;23.936;2022-12-01T17:08:48;101031.28;;;0.84;100.00
41830;BME280;38614;43.472;23.936;2022-12-01T17:11:36;101030.72;;;0.82;100.00
41830;BME280;38614;43.472;23.936;2022-12-01T17:14:26;101032.09;;;0.84;100.00
41830;BME280;38614;43.472;23.936;2022-12-01T17:17:15;101036.97;;;0.82;100.00
41830;BME280;38614;43.472;23.936;2022-12-01T17:20:03;101038.09;;;0.66;100.00
41830;BME280;38614;43.472;23.936;2022-12-01T17:22:54;101040.78;;;0.71;100.00